sensor_id;sensor_type;location;lat;lon;timestamp;temperature;humidity
38090;DHT22;23904;52.322;10.232;2022-12-29T00:01:55;9.80;99.90
38090;DHT22;23904;52.322;10.232;2022-12-29T00:04:21;9.80;99.90
38090;DHT22;23904;52.322;10.232;2022-12-29T00:06:47;9.70;99.90
38090;DHT22;23904;52.322;10.232;2022-12-29T00:09:15;9.70;99.90
38090;DHT22;23904;52.322;10.232;2022-12-29T00:11:41;9.70;99.90
38090;DHT22;23904;52.322;10.232;2022-12-29T00:14:09;9.80;99.90
38090;DHT22;23904;52.322;10.232;2022-12-29T00:16:54;9.70;99.90
38090;DHT22;23904;52.322;10.232;2022-12-29T00:19:19;9.80;99.90
38090;DHT22;23904;52.322;10.232;2022-12-29T00:22:04;9.80;99.90
38090;DHT22;23904;52.322;10.232;2022-12-29T00:24:48;9.80;99.90
38090;DHT22;23904;52.322;10.232;2022-12-29T00:27:26;9.80;99.90
38090;DHT22;23904;52.322;10.232;2022-12-29T00:30:16;9.90;99.90
38090;DHT22;23904;52.322;10.232;2022-12-29T00:33:32;9.80;99.90
38090;DHT22;23904;52.322;10.232;2022-12-29T00:36:26;9.90;99.90
38090;DHT22;23904;52.322;10.232;2022-12-29T00:39:07;9.90;99.90
38090;DHT22;23904;52.322;10.232;2022-12-29T00:41:53;10.00;99.90
38090;DHT22;23904;52.322;10.232;2022-12-29T00:44:37;10.00;99.90
38090;DHT22;23904;52.322;10.232;2022-12-29T00:47:06;10.00;99.90
38090;DHT22;23904;52.322;10.232;2022-12-29T00:49:32;10.10;99.90
38090;DHT22;23904;52.322;10.232;2022-12-29T00:52:00;10.00;99.90
38090;DHT22;23904;52.322;10.232;2022-12-29T00:54:34;10.00;99.90
38090;DHT22;23904;52.322;10.232;2022-12-29T00:57:02;10.00;99.90
38090;DHT22;23904;52.322;10.232;2022-12-29T00:59:28;10.00;99.90
38090;DHT22;23904;52.322;10.232;2022-12-29T01:01:55;9.90;99.90
38090;DHT22;23904;52.322;10.232;2022-12-29T01:04:22;10.00;99.90
38090;DHT22;23904;52.322;10.232;2022-12-29T01:06:49;10.00;99.90
38090;DHT22;23904;52.322;10.232;2022-12-29T01:09:16;10.00;99.90
38090;DHT22;23904;52.322;10.232;2022-12-29T01:12:01;10.10;99.90
38090;DHT22;23904;52.322;10.232;2022-12-29T01:14:27;10.20;99.90
38090;DHT22;23904;52.322;10.232;2022-12-29T01:16:54;10.20;99.90
38090;DHT22;23904;52.322;10.232;2022-12-29T01:19:20;10.10;99.90
38090;DHT22;23904;52.322;10.232;2022-12-29T01:21:47;10.20;99.90
38090;DHT22;23904;52.322;10.232;2022-12-29T01:24:13;10.10;99.90
38090;DHT22;23904;52.322;10.232;2022-12-29T01:26:40;10.20;99.90
38090;DHT22;23904;52.322;10.232;2022-12-29T01:29:05;10.20;99.90
38090;DHT22;23904;52.322;10.232;2022-12-29T01:31:31;10.20;99.90
38090;DHT22;23904;52.322;10.232;2022-12-29T01:33:56;10.20;99.90
38090;DHT22;23904;52.322;10.232;2022-12-29T01:36:23;10.20;99.90
38090;DHT22;23904;52.322;10.232;2022-12-29T01:38:49;10.30;99.90
38090;DHT22;23904;52.322;10.232;2022-12-29T01:41:15;10.30;99.90
38090;DHT22;23904;52.322;10.232;2022-12-29T01:46:40;10.20;99.90
38090;DHT22;23904;52.322;10.232;2022-12-29T01:51:55;10.20;99.90
38090;DHT22;23904;52.322;10.232;2022-12-29T01:54:36;10.20;99.90
38090;DHT22;23904;52.322;10.232;2022-12-29T01:57:08;10.10;99.90
38090;DHT22;23904;52.322;10.232;2022-12-29T01:59:41;10.10;99.90
38090;DHT22;23904;52.322;10.232;2022-12-29T02:02:09;10.00;99.90
38090;DHT22;23904;52.322;10.232;2022-12-29T02:04:38;10.00;99.90
38090;DHT22;23904;52.322;10.232;2022-12-29T02:07:18;9.90;99.90
38090;DHT22;23904;52.322;10.232;2022-12-29T02:09:49;9.80;99.90
38090;DHT22;23904;52.322;10.232;2022-12-29T02:12:18;9.80;99.90
38090;DHT22;23904;52.322;10.232;2022-12-29T02:14:45;9.90;99.90
38090;DHT22;23904;52.322;10.232;2022-12-29T02:17:32;9.90;99.90
38090;DHT22;23904;52.322;10.232;2022-12-29T02:26:44;10.00;99.90
38090;DHT22;23904;52.322;10.232;2022-12-29T02:35:15;10.00;99.90
38090;DHT22;23904;52.322;10.232;2022-12-29T02:38:18;10.00;99.90
38090;DHT22;23904;52.322;10.232;2022-12-29T02:41:09;10.00;99.90
38090;DHT22;23904;52.322;10.232;2022-12-29T02:43:50;9.80;99.90
38090;DHT22;23904;52.322;10.232;2022-12-29T02:46:35;9.70;99.90
38090;DHT22;23904;52.322;10.232;2022-12-29T02:52:02;9.80;99.90
38090;DHT22;23904;52.322;10.232;2022-12-29T02:54:32;9.80;99.90
38090;DHT22;23904;52.322;10.232;2022-12-29T02:57:27;9.90;99.90
38090;DHT22;23904;52.322;10.232;2022-12-29T03:00:00;9.90;99.90
38090;DHT22;23904;52.322;10.232;2022-12-29T03:02:39;9.90;99.90
38090;DHT22;23904;52.322;10.232;2022-12-29T03:11:15;10.00;99.90
38090;DHT22;23904;52.322;10.232;2022-12-29T03:20:38;10.10;99.90
38090;DHT22;23904;52.322;10.232;2022-12-29T03:23:08;10.10;99.90
38090;DHT22;23904;52.322;10.232;2022-12-29T03:25:40;10.20;99.90
38090;DHT22;23904;52.322;10.232;2022-12-29T03:28:13;10.10;99.90
38090;DHT22;23904;52.322;10.232;2022-12-29T03:30:45;10.20;99.90
38090;DHT22;23904;52.322;10.232;2022-12-29T03:33:15;10.20;99.90
38090;DHT22;23904;52.322;10.232;2022-12-29T03:35:46;10.30;99.90
38090;DHT22;23904;52.322;10.232;2022-12-29T03:38:39;10.30;99.90
38090;DHT22;23904;52.322;10.232;2022-12-29T03:41:12;10.40;99.90
38090;DHT22;23904;52.322;10.232;2022-12-29T03:43:41;10.40;99.90
38090;DHT22;23904;52.322;10.232;2022-12-29T03:46:06;10.40;99.90
38090;DHT22;23904;52.322;10.232;2022-12-29T03:48:32;10.40;99.90
38090;DHT22;23904;52.322;10.232;2022-12-29T03:50:58;10.40;99.90
38090;DHT22;23904;52.322;10.232;2022-12-29T03:53:24;10.50;99.90
38090;DHT22;23904;52.322;10.232;2022-12-29T03:55:50;10.40;99.90
38090;DHT22;23904;52.322;10.232;2022-12-29T03:58:15;10.40;99.90
38090;DHT22;23904;52.322;10.232;2022-12-29T04:00:41;10.40;99.90
38090;DHT22;23904;52.322;10.232;2022-12-29T04:03:07;10.30;99.90
38090;DHT22;23904;52.322;10.232;2022-12-29T04:05:32;10.30;99.90
38090;DHT22;23904;52.322;10.232;2022-12-29T04:07:58;10.30;99.90
38090;DHT22;23904;52.322;10.232;2022-12-29T04:10:23;10.30;99.90
38090;DHT22;23904;52.322;10.232;2022-12-29T04:12:49;10.30;99.90
38090;DHT22;23904;52.322;10.232;2022-12-29T04:15:14;10.30;99.90
38090;DHT22;23904;52.322;10.232;2022-12-29T04:17:40;10.30;99.90
38090;DHT22;23904;52.322;10.232;2022-12-29T04:20:06;10.30;99.90
38090;DHT22;23904;52.322;10.232;2022-12-29T04:22:58;10.30;99.90
38090;DHT22;23904;52.322;10.232;2022-12-29T04:25:25;10.30;99.90
38090;DHT22;23904;52.322;10.232;2022-12-29T04:27:50;10.30;99.90
38090;DHT22;23904;52.322;10.232;2022-12-29T04:30:16;10.30;99.90
38090;DHT22;23904;52.322;10.232;2022-12-29T04:32:41;10.30;99.90
38090;DHT22;23904;52.322;10.232;2022-12-29T04:35:07;10.30;99.90
38090;DHT22;23904;52.322;10.232;2022-12-29T04:37:33;10.40;99.90
38090;DHT22;23904;52.322;10.232;2022-12-29T04:39:58;10.40;99.90
38090;DHT22;23904;52.322;10.232;2022-12-29T04:42:24;10.40;99.90
38090;DHT22;23904;52.322;10.232;2022-12-29T04:44:49;10.40;99.90
38090;DHT22;23904;52.322;10.232;2022-12-29T04:47:15;10.40;99.90
38090;DHT22;23904;52.322;10.232;2022-12-29T04:49:40;10.60;99.90
38090;DHT22;23904;52.322;10.232;2022-12-29T04:52:06;10.60;99.90
38090;DHT22;23904;52.322;10.232;2022-12-29T04:54:33;10.60;99.90
38090;DHT22;23904;52.322;10.232;2022-12-29T04:56:59;10.60;99.90
38090;DHT22;23904;52.322;10.232;2022-12-29T04:59:24;10.60;99.90
38090;DHT22;23904;52.322;10.232;2022-12-29T05:01:50;10.70;99.90
38090;DHT22;23904;52.322;10.232;2022-12-29T05:04:15;10.70;99.90
38090;DHT22;23904;52.322;10.232;2022-12-29T05:06:41;10.70;99.90
38090;DHT22;23904;52.322;10.232;2022-12-29T05:09:06;10.70;99.90
38090;DHT22;23904;52.322;10.232;2022-12-29T05:11:32;10.70;99.90
38090;DHT22;23904;52.322;10.232;2022-12-29T05:13:57;10.80;99.90
38090;DHT22;23904;52.322;10.232;2022-12-29T05:16:23;10.80;99.90
38090;DHT22;23904;52.322;10.232;2022-12-29T05:18:48;10.90;99.90
38090;DHT22;23904;52.322;10.232;2022-12-29T05:21:14;10.90;99.90
38090;DHT22;23904;52.322;10.232;2022-12-29T05:23:39;10.90;99.90
38090;DHT22;23904;52.322;10.232;2022-12-29T05:26:05;10.90;99.90
38090;DHT22;23904;52.322;10.232;2022-12-29T05:28:30;10.80;99.90
38090;DHT22;23904;52.322;10.232;2022-12-29T05:30:56;10.80;99.90
38090;DHT22;23904;52.322;10.232;2022-12-29T05:33:21;10.80;99.90
38090;DHT22;23904;52.322;10.232;2022-12-29T05:35:47;10.80;99.90
38090;DHT22;23904;52.322;10.232;2022-12-29T05:38:12;10.80;99.90
38090;DHT22;23904;52.322;10.232;2022-12-29T05:40:38;10.80;99.90
38090;DHT22;23904;52.322;10.232;2022-12-29T05:43:04;10.90;99.90
38090;DHT22;23904;52.322;10.232;2022-12-29T05:45:29;11.00;99.90
38090;DHT22;23904;52.322;10.232;2022-12-29T05:47:55;11.00;99.90
38090;DHT22;23904;52.322;10.232;2022-12-29T05:50:20;11.10;99.90
38090;DHT22;23904;52.322;10.232;2022-12-29T05:52:46;11.20;99.90
38090;DHT22;23904;52.322;10.232;2022-12-29T05:55:12;11.20;99.90
38090;DHT22;23904;52.322;10.232;2022-12-29T05:57:37;11.20;99.90
38090;DHT22;23904;52.322;10.232;2022-12-29T06:00:07;11.20;99.90
38090;DHT22;23904;52.322;10.232;2022-12-29T06:02:33;11.30;99.90
38090;DHT22;23904;52.322;10.232;2022-12-29T06:04:58;11.30;99.90
38090;DHT22;23904;52.322;10.232;2022-12-29T06:07:24;11.30;99.90
38090;DHT22;23904;52.322;10.232;2022-12-29T06:09:49;11.20;99.90
38090;DHT22;23904;52.322;10.232;2022-12-29T06:12:15;11.20;99.90
38090;DHT22;23904;52.322;10.232;2022-12-29T06:14:41;11.20;99.90
38090;DHT22;23904;52.322;10.232;2022-12-29T06:17:07;11.10;99.90
38090;DHT22;23904;52.322;10.232;2022-12-29T06:19:33;11.10;99.90
38090;DHT22;23904;52.322;10.232;2022-12-29T06:21:58;11.20;99.90
38090;DHT22;23904;52.322;10.232;2022-12-29T06:24:24;11.20;99.90
38090;DHT22;23904;52.322;10.232;2022-12-29T06:26:49;11.20;99.90
38090;DHT22;23904;52.322;10.232;2022-12-29T06:29:20;11.10;99.90
38090;DHT22;23904;52.322;10.232;2022-12-29T06:31:48;11.10;99.90
38090;DHT22;23904;52.322;10.232;2022-12-29T06:34:14;11.10;99.90
38090;DHT22;23904;52.322;10.232;2022-12-29T06:36:40;11.00;99.90
38090;DHT22;23904;52.322;10.232;2022-12-29T06:39:06;11.00;99.90
38090;DHT22;23904;52.322;10.232;2022-12-29T06:41:31;11.00;99.90
38090;DHT22;23904;52.322;10.232;2022-12-29T06:43:57;11.00;99.90
38090;DHT22;23904;52.322;10.232;2022-12-29T06:46:22;11.00;99.90
38090;DHT22;23904;52.322;10.232;2022-12-29T06:48:48;11.00;99.90
38090;DHT22;23904;52.322;10.232;2022-12-29T06:51:13;11.00;99.90
38090;DHT22;23904;52.322;10.232;2022-12-29T06:53:39;11.00;99.90
38090;DHT22;23904;52.322;10.232;2022-12-29T06:56:05;11.00;99.90
38090;DHT22;23904;52.322;10.232;2022-12-29T06:58:30;11.00;99.90
38090;DHT22;23904;52.322;10.232;2022-12-29T07:00:56;11.10;99.90
38090;DHT22;23904;52.322;10.232;2022-12-29T07:03:21;11.10;99.90
38090;DHT22;23904;52.322;10.232;2022-12-29T07:05:47;11.10;99.90
38090;DHT22;23904;52.322;10.232;2022-12-29T07:08:12;11.10;99.90
38090;DHT22;23904;52.322;10.232;2022-12-29T07:10:38;11.20;99.90
38090;DHT22;23904;52.322;10.232;2022-12-29T07:13:04;11.20;99.90
38090;DHT22;23904;52.322;10.232;2022-12-29T07:15:29;11.10;99.90
38090;DHT22;23904;52.322;10.232;2022-12-29T07:17:55;11.20;99.90
38090;DHT22;23904;52.322;10.232;2022-12-29T07:20:20;11.20;99.90
38090;DHT22;23904;52.322;10.232;2022-12-29T07:22:46;11.20;99.90
38090;DHT22;23904;52.322;10.232;2022-12-29T07:25:12;11.30;99.90
38090;DHT22;23904;52.322;10.232;2022-12-29T07:27:38;11.40;99.90
38090;DHT22;23904;52.322;10.232;2022-12-29T07:30:04;11.40;99.90
38090;DHT22;23904;52.322;10.232;2022-12-29T07:32:33;11.40;99.90
38090;DHT22;23904;52.322;10.232;2022-12-29T07:34:59;11.40;99.90
38090;DHT22;23904;52.322;10.232;2022-12-29T07:37:24;11.40;99.90
38090;DHT22;23904;52.322;10.232;2022-12-29T07:39:50;11.40;99.90
38090;DHT22;23904;52.322;10.232;2022-12-29T07:42:16;11.40;99.90
38090;DHT22;23904;52.322;10.232;2022-12-29T07:44:41;11.30;99.90
38090;DHT22;23904;52.322;10.232;2022-12-29T07:47:07;11.30;99.90
38090;DHT22;23904;52.322;10.232;2022-12-29T07:49:32;11.40;99.90
38090;DHT22;23904;52.322;10.232;2022-12-29T07:51:58;11.40;99.90
38090;DHT22;23904;52.322;10.232;2022-12-29T07:54:23;11.40;99.90
38090;DHT22;23904;52.322;10.232;2022-12-29T07:56:49;11.40;99.90
38090;DHT22;23904;52.322;10.232;2022-12-29T07:59:15;11.50;99.90
38090;DHT22;23904;52.322;10.232;2022-12-29T08:01:40;11.50;99.90
38090;DHT22;23904;52.322;10.232;2022-12-29T08:04:06;11.50;99.90
38090;DHT22;23904;52.322;10.232;2022-12-29T08:06:32;11.50;99.90
38090;DHT22;23904;52.322;10.232;2022-12-29T08:08:57;11.50;99.90
38090;DHT22;23904;52.322;10.232;2022-12-29T08:11:23;11.60;99.90
38090;DHT22;23904;52.322;10.232;2022-12-29T08:13:49;11.60;99.90
38090;DHT22;23904;52.322;10.232;2022-12-29T08:16:14;11.60;99.90
38090;DHT22;23904;52.322;10.232;2022-12-29T08:18:40;11.50;99.90
38090;DHT22;23904;52.322;10.232;2022-12-29T08:21:05;11.60;99.90
38090;DHT22;23904;52.322;10.232;2022-12-29T08:23:31;11.60;99.90
38090;DHT22;23904;52.322;10.232;2022-12-29T08:25:59;11.70;99.90
38090;DHT22;23904;52.322;10.232;2022-12-29T08:28:25;11.70;99.90
38090;DHT22;23904;52.322;10.232;2022-12-29T08:30:56;11.70;99.90
38090;DHT22;23904;52.322;10.232;2022-12-29T08:33:23;11.70;99.90
38090;DHT22;23904;52.322;10.232;2022-12-29T08:35:48;11.70;99.90
38090;DHT22;23904;52.322;10.232;2022-12-29T08:38:14;11.60;99.90
38090;DHT22;23904;52.322;10.232;2022-12-29T08:40:40;11.50;99.90
38090;DHT22;23904;52.322;10.232;2022-12-29T08:43:06;11.50;99.90
38090;DHT22;23904;52.322;10.232;2022-12-29T08:45:32;11.40;99.90
38090;DHT22;23904;52.322;10.232;2022-12-29T08:47:57;11.30;99.90
38090;DHT22;23904;52.322;10.232;2022-12-29T08:50:23;11.20;99.90
38090;DHT22;23904;52.322;10.232;2022-12-29T08:52:49;11.00;99.90
38090;DHT22;23904;52.322;10.232;2022-12-29T08:55:15;10.90;99.90
38090;DHT22;23904;52.322;10.232;2022-12-29T08:57:41;10.80;99.90
38090;DHT22;23904;52.322;10.232;2022-12-29T09:00:07;10.70;99.90
38090;DHT22;23904;52.322;10.232;2022-12-29T09:02:33;10.60;99.90
38090;DHT22;23904;52.322;10.232;2022-12-29T09:04:59;10.50;99.90
38090;DHT22;23904;52.322;10.232;2022-12-29T09:07:25;10.40;99.90
38090;DHT22;23904;52.322;10.232;2022-12-29T09:09:51;10.30;99.90
38090;DHT22;23904;52.322;10.232;2022-12-29T09:12:17;10.20;99.90
38090;DHT22;23904;52.322;10.232;2022-12-29T09:14:43;10.10;99.90
38090;DHT22;23904;52.322;10.232;2022-12-29T09:17:09;10.00;99.90
38090;DHT22;23904;52.322;10.232;2022-12-29T09:19:54;9.80;99.90
38090;DHT22;23904;52.322;10.232;2022-12-29T09:22:20;9.70;99.90
38090;DHT22;23904;52.322;10.232;2022-12-29T09:24:46;9.70;99.90
38090;DHT22;23904;52.322;10.232;2022-12-29T09:27:11;9.70;99.90
38090;DHT22;23904;52.322;10.232;2022-12-29T09:29:37;9.70;99.90
38090;DHT22;23904;52.322;10.232;2022-12-29T09:32:02;9.70;99.90
38090;DHT22;23904;52.322;10.232;2022-12-29T09:34:28;9.70;99.90
38090;DHT22;23904;52.322;10.232;2022-12-29T09:36:54;9.70;99.90
38090;DHT22;23904;52.322;10.232;2022-12-29T09:39:21;9.70;99.90
38090;DHT22;23904;52.322;10.232;2022-12-29T09:45:11;9.70;99.90
38090;DHT22;23904;52.322;10.232;2022-12-29T09:47:40;9.80;99.90
38090;DHT22;23904;52.322;10.232;2022-12-29T09:50:44;9.80;99.90
38090;DHT22;23904;52.322;10.232;2022-12-29T09:53:35;9.90;99.90
38090;DHT22;23904;52.322;10.232;2022-12-29T09:56:05;9.90;99.90
38090;DHT22;23904;52.322;10.232;2022-12-29T09:58:41;9.90;99.90
38090;DHT22;23904;52.322;10.232;2022-12-29T10:04:14;9.80;99.90
38090;DHT22;23904;52.322;10.232;2022-12-29T10:09:34;9.80;99.90
38090;DHT22;23904;52.322;10.232;2022-12-29T10:15:04;9.90;99.90
38090;DHT22;23904;52.322;10.232;2022-12-29T10:18:32;10.00;99.90
38090;DHT22;23904;52.322;10.232;2022-12-29T10:23:46;11.00;99.90
38090;DHT22;23904;52.322;10.232;2022-12-29T10:26:21;11.80;99.90
38090;DHT22;23904;52.322;10.232;2022-12-29T10:29:04;12.30;99.90
38090;DHT22;23904;52.322;10.232;2022-12-29T10:31:39;12.60;99.90
38090;DHT22;23904;52.322;10.232;2022-12-29T10:34:37;12.90;99.90
38090;DHT22;23904;52.322;10.232;2022-12-29T10:40:33;12.60;99.90
38090;DHT22;23904;52.322;10.232;2022-12-29T10:43:20;12.20;99.90
38090;DHT22;23904;52.322;10.232;2022-12-29T10:45:53;12.00;99.90
38090;DHT22;23904;52.322;10.232;2022-12-29T10:48:23;11.80;99.90
38090;DHT22;23904;52.322;10.232;2022-12-29T10:50:59;11.70;99.90
38090;DHT22;23904;52.322;10.232;2022-12-29T10:53:35;11.40;99.90
38090;DHT22;23904;52.322;10.232;2022-12-29T10:56:30;11.20;99.90
38090;DHT22;23904;52.322;10.232;2022-12-29T10:59:25;11.30;99.90
38090;DHT22;23904;52.322;10.232;2022-12-29T11:07:10;11.80;99.90
38090;DHT22;23904;52.322;10.232;2022-12-29T11:09:38;12.00;99.90
38090;DHT22;23904;52.322;10.232;2022-12-29T11:12:26;11.90;99.90
38090;DHT22;23904;52.322;10.232;2022-12-29T11:17:46;12.00;99.90
38090;DHT22;23904;52.322;10.232;2022-12-29T11:20:37;12.10;99.90
38090;DHT22;23904;52.322;10.232;2022-12-29T11:23:09;11.90;99.90
38090;DHT22;23904;52.322;10.232;2022-12-29T11:26:13;11.90;99.90
38090;DHT22;23904;52.322;10.232;2022-12-29T11:28:43;11.80;99.90
38090;DHT22;23904;52.322;10.232;2022-12-29T11:31:10;11.80;99.90
38090;DHT22;23904;52.322;10.232;2022-12-29T11:33:37;11.80;99.90
38090;DHT22;23904;52.322;10.232;2022-12-29T11:36:16;11.70;99.90
38090;DHT22;23904;52.322;10.232;2022-12-29T11:38:48;11.70;99.90
38090;DHT22;23904;52.322;10.232;2022-12-29T11:41:23;12.00;99.90
38090;DHT22;23904;52.322;10.232;2022-12-29T11:43:50;12.30;99.90
38090;DHT22;23904;52.322;10.232;2022-12-29T11:46:25;12.50;99.90
38090;DHT22;23904;52.322;10.232;2022-12-29T11:48:53;12.50;99.90
38090;DHT22;23904;52.322;10.232;2022-12-29T11:51:26;12.30;99.90
38090;DHT22;23904;52.322;10.232;2022-12-29T11:53:59;12.10;99.90
38090;DHT22;23904;52.322;10.232;2022-12-29T11:56:34;12.10;99.90
38090;DHT22;23904;52.322;10.232;2022-12-29T12:01:53;11.80;99.90
38090;DHT22;23904;52.322;10.232;2022-12-29T12:04:23;11.60;99.90
38090;DHT22;23904;52.322;10.232;2022-12-29T12:07:04;11.60;99.90
38090;DHT22;23904;52.322;10.232;2022-12-29T12:09:46;11.70;99.90
38090;DHT22;23904;52.322;10.232;2022-12-29T12:12:24;11.90;99.90
38090;DHT22;23904;52.322;10.232;2022-12-29T12:14:56;12.00;99.90
38090;DHT22;23904;52.322;10.232;2022-12-29T12:17:37;12.10;99.90
38090;DHT22;23904;52.322;10.232;2022-12-29T12:20:21;12.60;99.90
38090;DHT22;23904;52.322;10.232;2022-12-29T12:22:59;13.40;99.90
38090;DHT22;23904;52.322;10.232;2022-12-29T12:25:47;14.20;99.90
38090;DHT22;23904;52.322;10.232;2022-12-29T12:28:41;14.40;99.90
38090;DHT22;23904;52.322;10.232;2022-12-29T12:31:49;14.70;99.90
38090;DHT22;23904;52.322;10.232;2022-12-29T12:34:33;13.70;99.90
38090;DHT22;23904;52.322;10.232;2022-12-29T12:37:05;13.10;99.90
38090;DHT22;23904;52.322;10.232;2022-12-29T12:40:24;12.60;99.90
38090;DHT22;23904;52.322;10.232;2022-12-29T12:43:40;12.50;99.90
38090;DHT22;23904;52.322;10.232;2022-12-29T12:46:28;12.30;99.90
38090;DHT22;23904;52.322;10.232;2022-12-29T12:49:37;12.00;99.90
38090;DHT22;23904;52.322;10.232;2022-12-29T12:58:35;11.70;99.90
38090;DHT22;23904;52.322;10.232;2022-12-29T13:01:34;11.60;99.90
38090;DHT22;23904;52.322;10.232;2022-12-29T13:04:24;11.60;99.90
38090;DHT22;23904;52.322;10.232;2022-12-29T13:07:13;11.60;99.90
38090;DHT22;23904;52.322;10.232;2022-12-29T13:10:13;11.60;99.90
38090;DHT22;23904;52.322;10.232;2022-12-29T13:12:50;11.60;99.90
38090;DHT22;23904;52.322;10.232;2022-12-29T13:15:52;11.60;99.90
38090;DHT22;23904;52.322;10.232;2022-12-29T13:18:46;11.60;99.90
38090;DHT22;23904;52.322;10.232;2022-12-29T13:22:14;11.60;99.90
38090;DHT22;23904;52.322;10.232;2022-12-29T13:27:43;11.50;99.90
38090;DHT22;23904;52.322;10.232;2022-12-29T13:30:19;11.50;99.90
38090;DHT22;23904;52.322;10.232;2022-12-29T13:33:17;11.50;99.90
38090;DHT22;23904;52.322;10.232;2022-12-29T13:36:04;11.50;99.90
38090;DHT22;23904;52.322;10.232;2022-12-29T13:38:45;11.40;99.90
38090;DHT22;23904;52.322;10.232;2022-12-29T13:41:25;11.50;99.90
38090;DHT22;23904;52.322;10.232;2022-12-29T13:43:55;11.50;99.90
38090;DHT22;23904;52.322;10.232;2022-12-29T13:46:26;11.50;99.90
38090;DHT22;23904;52.322;10.232;2022-12-29T13:51:54;11.50;99.90
38090;DHT22;23904;52.322;10.232;2022-12-29T13:54:45;11.50;99.90
38090;DHT22;23904;52.322;10.232;2022-12-29T13:57:45;11.60;99.90
38090;DHT22;23904;52.322;10.232;2022-12-29T14:00:22;11.60;99.90
38090;DHT22;23904;52.322;10.232;2022-12-29T14:03:19;11.60;99.90
38090;DHT22;23904;52.322;10.232;2022-12-29T14:09:04;11.50;99.90
38090;DHT22;23904;52.322;10.232;2022-12-29T14:11:33;11.50;99.90
38090;DHT22;23904;52.322;10.232;2022-12-29T14:14:12;11.50;99.90
38090;DHT22;23904;52.322;10.232;2022-12-29T14:16:44;11.40;99.90
38090;DHT22;23904;52.322;10.232;2022-12-29T14:19:15;11.40;99.90
38090;DHT22;23904;52.322;10.232;2022-12-29T14:22:00;11.30;99.90
38090;DHT22;23904;52.322;10.232;2022-12-29T14:34:46;11.30;99.90
38090;DHT22;23904;52.322;10.232;2022-12-29T14:37:31;11.40;99.90
38090;DHT22;23904;52.322;10.232;2022-12-29T14:40:22;11.30;99.90
38090;DHT22;23904;52.322;10.232;2022-12-29T14:42:52;11.30;99.90
38090;DHT22;23904;52.322;10.232;2022-12-29T14:47:49;11.20;99.90
38090;DHT22;23904;52.322;10.232;2022-12-29T14:50:24;11.20;99.90
38090;DHT22;23904;52.322;10.232;2022-12-29T14:53:01;11.20;99.90
38090;DHT22;23904;52.322;10.232;2022-12-29T14:55:41;11.20;99.90
38090;DHT22;23904;52.322;10.232;2022-12-29T14:58:19;11.20;99.90
38090;DHT22;23904;52.322;10.232;2022-12-29T15:00:54;11.30;99.90
38090;DHT22;23904;52.322;10.232;2022-12-29T15:03:22;11.30;99.90
38090;DHT22;23904;52.322;10.232;2022-12-29T15:05:50;11.30;99.90
38090;DHT22;23904;52.322;10.232;2022-12-29T15:08:30;11.20;99.90
38090;DHT22;23904;52.322;10.232;2022-12-29T15:11:03;11.10;99.90
38090;DHT22;23904;52.322;10.232;2022-12-29T15:13:38;11.20;99.90
38090;DHT22;23904;52.322;10.232;2022-12-29T15:16:05;11.10;99.90
38090;DHT22;23904;52.322;10.232;2022-12-29T15:18:46;11.00;99.90
38090;DHT22;23904;52.322;10.232;2022-12-29T15:21:13;11.00;99.90
38090;DHT22;23904;52.322;10.232;2022-12-29T15:23:43;10.90;99.90
38090;DHT22;23904;52.322;10.232;2022-12-29T15:26:09;10.90;99.90
38090;DHT22;23904;52.322;10.232;2022-12-29T15:28:38;10.80;99.90
38090;DHT22;23904;52.322;10.232;2022-12-29T15:31:21;10.70;99.90
38090;DHT22;23904;52.322;10.232;2022-12-29T15:33:55;10.70;99.90
38090;DHT22;23904;52.322;10.232;2022-12-29T15:36:37;10.70;99.90
38090;DHT22;23904;52.322;10.232;2022-12-29T15:39:18;10.60;99.90
38090;DHT22;23904;52.322;10.232;2022-12-29T15:41:53;10.60;99.90
38090;DHT22;23904;52.322;10.232;2022-12-29T15:44:36;10.60;99.90
38090;DHT22;23904;52.322;10.232;2022-12-29T15:47:05;10.50;99.90
38090;DHT22;23904;52.322;10.232;2022-12-29T15:49:32;10.60;99.90
38090;DHT22;23904;52.322;10.232;2022-12-29T15:51:59;10.60;99.90
38090;DHT22;23904;52.322;10.232;2022-12-29T15:54:27;10.50;99.90
38090;DHT22;23904;52.322;10.232;2022-12-29T15:56:55;10.50;99.90
38090;DHT22;23904;52.322;10.232;2022-12-29T15:59:32;10.50;99.90
38090;DHT22;23904;52.322;10.232;2022-12-29T16:02:00;10.50;99.90
38090;DHT22;23904;52.322;10.232;2022-12-29T16:04:29;10.50;99.90
38090;DHT22;23904;52.322;10.232;2022-12-29T16:06:59;10.50;99.90
38090;DHT22;23904;52.322;10.232;2022-12-29T16:09:42;10.50;99.90
38090;DHT22;23904;52.322;10.232;2022-12-29T16:12:22;10.50;99.90
38090;DHT22;23904;52.322;10.232;2022-12-29T16:15:07;10.40;99.90
38090;DHT22;23904;52.322;10.232;2022-12-29T16:17:47;10.20;99.90
38090;DHT22;23904;52.322;10.232;2022-12-29T16:20:22;10.10;99.90
38090;DHT22;23904;52.322;10.232;2022-12-29T16:22:54;10.10;99.90
38090;DHT22;23904;52.322;10.232;2022-12-29T16:25:24;10.00;99.90
38090;DHT22;23904;52.322;10.232;2022-12-29T16:27:51;9.90;99.90
38090;DHT22;23904;52.322;10.232;2022-12-29T16:30:24;9.80;99.90
38090;DHT22;23904;52.322;10.232;2022-12-29T16:32:54;9.80;99.90
38090;DHT22;23904;52.322;10.232;2022-12-29T16:35:23;9.80;99.90
38090;DHT22;23904;52.322;10.232;2022-12-29T16:38:12;9.80;99.90
38090;DHT22;23904;52.322;10.232;2022-12-29T16:41:00;9.70;99.90
38090;DHT22;23904;52.322;10.232;2022-12-29T16:43:30;9.70;99.90
38090;DHT22;23904;52.322;10.232;2022-12-29T16:48:29;9.80;99.90
38090;DHT22;23904;52.322;10.232;2022-12-29T16:51:15;9.70;99.90
38090;DHT22;23904;52.322;10.232;2022-12-29T16:53:51;9.70;99.90
38090;DHT22;23904;52.322;10.232;2022-12-29T16:56:20;9.80;99.90
38090;DHT22;23904;52.322;10.232;2022-12-29T16:58:50;9.80;99.90
38090;DHT22;23904;52.322;10.232;2022-12-29T17:01:19;9.70;99.90
38090;DHT22;23904;52.322;10.232;2022-12-29T17:03:51;9.80;99.90
38090;DHT22;23904;52.322;10.232;2022-12-29T17:06:20;9.70;99.90
38090;DHT22;23904;52.322;10.232;2022-12-29T17:08:48;9.90;99.90
38090;DHT22;23904;52.322;10.232;2022-12-29T17:11:31;9.80;99.90
38090;DHT22;23904;52.322;10.232;2022-12-29T17:14:34;9.90;99.90
38090;DHT22;23904;52.322;10.232;2022-12-29T17:17:05;10.00;99.90
38090;DHT22;23904;52.322;10.232;2022-12-29T17:19:35;10.00;99.90
38090;DHT22;23904;52.322;10.232;2022-12-29T17:22:05;10.10;99.90
38090;DHT22;23904;52.322;10.232;2022-12-29T17:24:35;10.10;99.90
38090;DHT22;23904;52.322;10.232;2022-12-29T17:27:01;10.10;99.90